Time;durP1;ratioP1;P1;durP2;ratioP2;P2;SDS_P1;SDS_P2;PMS_P1;PMS_P2;Temp;Humidity;BMP_temperature;BMP_pressure;BME280_temperature;BME280_humidity;BME280_pressure;Samples;Min_cycle;Max_cycle;Signal;HPM_P1;HPM_P2
2022/02/04 00:24:33;;;;;;;70.65;35.63;;;7.80;95.10;;;;;;6165326;23;20474;-80
2022/02/04 00:27:06;;;;;;;70.60;34.75;;;7.80;95.10;;;;;;6141336;23;20056;-80
2022/02/04 00:29:43;;;;;;;67.40;33.40;;;7.80;95.10;;;;;;6117873;23;20099;-80
2022/02/04 00:32:10;;;;;;;64.20;32.60;;;7.80;95.10;;;;;;6190880;23;20021;-81
2022/02/04 00:34:43;;;;;;;62.25;32.67;;;7.80;95.10;;;;;;6140904;23;20013;-79
2022/02/04 00:39:57;;;;;;;67.68;33.78;;;7.80;95.10;;;;;;6143387;23;20021;-80
2022/02/04 00:42:23;;;;;;;65.57;31.85;;;7.80;95.10;;;;;;6142556;23;20024;-80
2022/02/04 00:44:55;;;;;;;58.67;30.75;;;7.80;95.10;;;;;;6165834;23;20088;-81
2022/02/04 00:47:24;;;;;;;;;;;7.80;95.10;;;;;;6118505;23;20017;-80
2022/02/04 00:55:42;;;;;;;58.03;29.65;;;7.80;95.00;;;;;;6165455;23;20521;-81
2022/02/04 00:57:47;;;;;;;55.70;28.83;;;7.80;94.90;;;;;;6123814;23;20028;-80
2022/02/04 01:27:24;;;;;;;55.55;30.30;;;7.60;94.90;;;;;;6144656;23;20317;-81
2022/02/04 01:30:36;;;;;;;62.40;31.08;;;7.60;94.90;;;;;;6165147;23;20076;-80
2022/02/04 01:32:38;;;;;;;61.10;32.65;;;7.60;94.90;;;;;;6129482;23;20344;-81
2022/02/04 01:35:04;;;;;;;56.40;30.27;;;7.60;94.90;;;;;;6140965;23;20032;-81
2022/02/04 01:37:30;;;;;;;60.80;30.48;;;7.60;94.90;;;;;;6141396;23;20017;-80
2022/02/04 01:39:56;;;;;;;64.13;31.95;;;7.60;95.00;;;;;;6140491;23;20088;-80
2022/02/04 01:42:22;;;;;;;60.58;32.25;;;7.50;95.00;;;;;;6190406;23;20017;-81
2022/02/04 01:44:47;;;;;;;65.80;32.75;;;7.50;95.00;;;;;;6190149;23;20093;-81
2022/02/04 01:47:13;;;;;;;62.25;33.50;;;7.50;95.00;;;;;;6141027;23;20028;-81
2022/02/04 01:49:39;;;;;;;68.32;33.25;;;7.50;95.00;;;;;;6165507;23;20028;-80
2022/02/04 01:52:05;;;;;;;65.15;32.30;;;7.50;95.00;;;;;;6116353;23;20021;-81
2022/02/04 01:54:31;;;;;;;65.45;33.13;;;7.50;95.00;;;;;;6141374;23;20079;-81
2022/02/04 01:56:56;;;;;;;68.90;34.25;;;7.40;95.00;;;;;;6140106;23;20017;-80
2022/02/04 01:59:22;;;;;;;65.63;33.28;;;7.40;95.30;;;;;;6165790;23;20274;-81
2022/02/04 02:01:48;;;;;;;65.32;33.03;;;7.40;95.00;;;;;;6140161;23;20340;-81
2022/02/04 02:04:15;;;;;;;63.95;32.30;;;7.40;95.00;;;;;;6165414;23;20079;-81
2022/02/04 02:07:00;;;;;;;61.30;32.10;;;7.40;95.00;;;;;;6140919;23;20020;-81
2022/02/04 02:10:13;;;;;;;67.82;34.40;;;7.50;95.10;;;;;;6143837;23;20076;-81
2022/02/04 02:12:12;;;;;;;67.50;33.15;;;7.40;95.10;;;;;;6156597;23;20021;-81
2022/02/04 02:14:40;;;;;;;63.40;31.98;;;7.50;95.10;;;;;;6168228;23;20040;-79
2022/02/04 02:45:29;;;;;;;66.78;36.83;;;7.50;95.20;;;;;;6070783;23;20083;-80
2022/02/04 03:03:14;;;;;;;76.60;38.70;;;7.50;95.40;;;;;;6169506;23;20073;-81
2022/02/04 03:05:40;;;;;;;74.22;37.97;;;7.50;95.40;;;;;;6143710;23;20029;-80
2022/02/04 03:08:05;;;;;;;74.53;38.60;;;7.60;95.40;;;;;;6168255;23;20028;-81
2022/02/04 03:10:31;;;;;;;77.60;38.60;;;7.60;95.40;;;;;;6168583;23;20021;-81
2022/02/04 03:12:57;;;;;;;75.13;39.40;;;7.60;95.50;;;;;;6143185;23;20021;-82
2022/02/04 03:15:22;;;;;;;75.18;39.53;;;7.60;95.40;;;;;;6167749;23;20028;-81
2022/02/04 03:17:57;;;;;;;76.53;40.53;;;7.60;95.50;;;;;;6142690;23;20331;-80
2022/02/04 03:20:23;;;;;;;71.30;38.78;;;7.60;95.50;;;;;;6170726;23;20087;-81
2022/02/04 03:22:50;;;;;;;78.75;39.30;;;7.60;95.50;;;;;;6116858;23;20435;-80
2022/02/04 03:25:17;;;;;;;71.85;38.67;;;7.60;95.50;;;;;;6191311;23;20052;-80
2022/02/04 03:27:50;;;;;;;80.10;40.45;;;7.60;95.50;;;;;;6142756;23;20040;-80
2022/02/04 03:30:25;;;;;;;75.53;39.22;;;7.60;95.50;;;;;;6118839;23;20021;-81
2022/02/04 03:32:55;;;;;;;70.57;38.28;;;7.60;95.50;;;;;;6119484;23;20027;-81
2022/02/04 03:35:22;;;;;;;71.88;40.35;;;7.60;95.50;;;;;;6167774;23;20075;-80
2022/02/04 03:37:49;;;;;;;74.38;39.63;;;7.60;95.50;;;;;;6142249;23;20021;-79
2022/02/04 03:40:15;;;;;;;75.20;39.38;;;7.70;95.60;;;;;;6142068;23;20486;-81
2022/02/04 03:42:41;;;;;;;75.45;37.97;;;7.70;95.60;;;;;;6166436;23;20017;-81
2022/02/04 03:45:07;;;;;;;71.07;37.03;;;7.70;95.60;;;;;;6141524;23;20044;-81
2022/02/04 03:47:32;;;;;;;73.15;39.03;;;7.70;95.60;;;;;;6166504;23;20025;-81
2022/02/04 03:49:58;;;;;;;73.68;38.38;;;7.70;95.60;;;;;;6166358;23;20048;-81
2022/02/04 03:52:24;;;;;;;72.30;39.80;;;7.70;95.60;;;;;;6193223;23;20017;-81
2022/02/04 03:54:49;;;;;;;73.15;40.90;;;7.70;95.60;;;;;;6166373;23;20069;-80
2022/02/04 03:57:15;;;;;;;73.85;39.63;;;7.70;95.50;;;;;;6166373;23;20017;-80
2022/02/04 03:59:41;;;;;;;73.72;40.10;;;7.70;95.50;;;;;;6117200;23;20017;-81
2022/02/04 04:02:06;;;;;;;73.25;40.88;;;7.70;95.60;;;;;;6141376;23;20021;-81
2022/02/04 04:04:34;;;;;;;73.93;40.17;;;7.70;95.50;;;;;;6166501;23;20013;-81
2022/02/04 04:07:00;;;;;;;73.78;40.22;;;7.70;95.60;;;;;;6141617;23;20021;-81
2022/02/04 04:09:26;;;;;;;79.95;41.40;;;7.70;95.50;;;;;;6117178;23;20456;-81
2022/02/04 04:11:54;;;;;;;71.45;39.47;;;7.70;95.50;;;;;;6190395;23;20399;-79
2022/02/04 04:14:20;;;;;;;69.90;39.92;;;7.70;95.60;;;;;;6141167;23;20047;-81
2022/02/04 04:16:47;;;;;;;74.28;40.22;;;7.70;95.60;;;;;;6166552;23;20452;-81
2022/02/04 04:19:13;;;;;;;71.85;41.45;;;7.80;95.60;;;;;;6141619;23;20024;-81
2022/02/04 04:21:39;;;;;;;70.15;39.20;;;7.80;95.60;;;;;;6141496;23;20013;-81
2022/02/04 04:24:05;;;;;;;74.63;40.42;;;7.80;95.60;;;;;;6141157;23;20029;-81
2022/02/04 04:26:33;;;;;;;70.38;40.10;;;7.80;95.60;;;;;;6141228;23;20462;-81
2022/02/04 04:28:58;;;;;;;77.75;40.97;;;7.80;95.60;;;;;;6165638;23;20017;-80
2022/02/04 04:31:24;;;;;;;67.65;39.88;;;7.80;95.60;;;;;;6165387;23;20028;-80
2022/02/04 04:33:50;;;;;;;76.53;41.67;;;7.80;95.60;;;;;;6141043;23;20021;-81
2022/02/04 04:36:17;;;;;;;69.55;38.72;;;7.80;95.60;;;;;;6165443;23;20534;-81
2022/02/04 04:38:53;;;;;;;75.72;42.53;;;7.80;95.60;;;;;;6166425;23;20021;-81
2022/02/04 04:41:39;;;;;;;73.72;39.80;;;7.80;95.60;;;;;;6118572;23;20344;-80
2022/02/04 05:30:06;;;;;;;54.70;36.17;;;7.90;95.60;;;;;;6141391;23;20447;-80
2022/02/04 05:32:31;;;;;;;55.38;35.63;;;7.90;95.60;;;;;;6141761;23;20020;-81
2022/02/04 05:34:57;;;;;;;62.03;38.05;;;7.90;95.60;;;;;;6141298;23;20092;-78
2022/02/04 05:37:24;;;;;;;56.67;35.53;;;7.90;95.60;;;;;;6139410;23;20129;-79
2022/02/04 05:42:23;;;;;;;56.10;35.28;;;7.90;95.60;;;;;;6164371;23;20075;-79
2022/02/04 05:44:56;;;;;;;55.30;35.72;;;7.90;95.60;;;;;;6165746;23;20017;-80
2022/02/04 05:47:22;;;;;;;59.28;35.75;;;7.90;95.50;;;;;;6164549;23;20043;-79
2022/02/04 05:50:05;;;;;;;55.58;34.53;;;7.90;95.60;;;;;;6164821;23;20447;-79
2022/02/04 05:52:46;;;;;;;53.78;35.65;;;7.90;95.50;;;;;;6167264;23;20099;-80
2022/02/04 05:55:29;;;;;;;54.15;34.38;;;7.90;95.50;;;;;;6163676;23;20021;-79
2022/02/04 05:58:18;;;;;;;;;;;7.90;95.50;;;;;;6119428;23;20021;-79
2022/02/04 06:00:48;;;;;;;54.20;33.33;;;7.90;95.50;;;;;;6162667;23;19991;-79
2022/02/04 06:12:01;;;;;;;53.60;32.53;;;7.90;95.40;;;;;;6143005;23;20021;-78
2022/02/04 06:14:50;;;;;;;55.17;33.20;;;7.90;95.40;;;;;;6145726;23;20052;-80
2022/02/04 06:22:50;;;;;;;52.30;33.33;;;7.90;95.40;;;;;;6143507;23;20056;-80
2022/02/04 06:25:16;;;;;;;49.33;31.67;;;7.90;95.40;;;;;;6165905;23;20078;-78
2022/02/04 06:27:41;;;;;;;51.67;30.95;;;7.90;95.30;;;;;;6164396;23;20021;-79
2022/02/04 06:30:07;;;;;;;48.83;29.25;;;7.90;95.30;;;;;;6138748;23;20116;-82
2022/02/04 06:32:33;;;;;;;46.95;31.17;;;7.90;95.30;;;;;;6139550;23;20033;-80
2022/02/04 06:34:59;;;;;;;45.08;27.52;;;7.90;95.30;;;;;;6164661;23;20017;-80
2022/02/04 06:37:25;;;;;;;43.42;27.60;;;7.90;95.30;;;;;;6163683;23;20444;-80
2022/02/04 06:39:51;;;;;;;46.40;28.38;;;7.90;95.30;;;;;;6138395;23;20017;-80
2022/02/04 06:42:24;;;;;;;41.42;28.17;;;7.90;95.30;;;;;;6163451;23;20395;-79
2022/02/04 06:44:50;;;;;;;47.95;28.25;;;8.00;95.30;;;;;;6140293;23;20021;-81
2022/02/04 06:47:16;;;;;;;43.58;27.85;;;8.00;95.30;;;;;;6164578;23;20017;-80
2022/02/04 06:49:45;;;;;;;45.70;27.88;;;8.00;95.20;;;;;;6140787;23;20128;-81
2022/02/04 06:52:10;;;;;;;44.85;26.67;;;8.00;95.20;;;;;;6116707;23;20024;-80
2022/02/04 06:54:36;;;;;;;40.30;25.33;;;8.00;95.20;;;;;;6165791;23;20016;-81
2022/02/04 06:57:02;;;;;;;38.35;24.35;;;8.00;95.20;;;;;;6117303;23;20017;-80
2022/02/04 06:59:30;;;;;;;40.63;25.02;;;8.00;95.20;;;;;;6139058;23;20319;-76
2022/02/04 07:01:55;;;;;;;35.22;24.05;;;8.00;95.20;;;;;;6161356;23;20040;-78
2022/02/04 07:04:21;;;;;;;37.05;24.23;;;8.00;95.10;;;;;;6188103;23;20447;-81
2022/02/04 07:06:54;;;;;;;37.35;23.42;;;8.00;95.10;;;;;;6137860;23;20027;-86
2022/02/04 07:09:43;;;;;;;39.97;23.10;;;7.90;95.10;;;;;;6118265;23;20017;-87
2022/02/04 07:15:09;;;;;;;34.95;23.30;;;8.00;95.10;;;;;;6144899;23;20047;-86
2022/02/04 07:17:58;;;;;;;34.28;21.70;;;8.00;95.10;;;;;;6149921;23;20036;-87
2022/02/04 07:20:24;;;;;;;35.88;21.20;;;8.00;95.00;;;;;;6148423;23;20021;-77
2022/02/04 07:22:50;;;;;;;31.70;21.83;;;8.00;95.00;;;;;;6143578;23;20079;-76
2022/02/04 07:25:16;;;;;;;30.15;20.42;;;8.00;95.00;;;;;;6169014;23;20016;-85
2022/02/04 07:27:43;;;;;;;30.58;19.95;;;8.00;95.00;;;;;;6121359;23;20452;-85
2022/02/04 07:30:10;;;;;;;34.08;21.10;;;8.00;94.90;;;;;;6122062;23;20021;-84
2022/02/04 07:32:53;;;;;;;33.05;21.45;;;8.00;94.90;;;;;;6146254;23;20013;-84
2022/02/04 07:38:48;;;;;;;32.33;21.05;;;8.00;94.90;;;;;;6149635;23;20013;-87
2022/02/04 07:45:01;;;;;;;28.50;19.00;;;8.00;94.80;;;;;;6197426;23;20012;-85
2022/02/04 07:47:29;;;;;;;26.92;18.77;;;8.00;94.80;;;;;;6147058;23;20395;-85
2022/02/04 07:49:57;;;;;;;34.53;19.40;;;8.00;94.80;;;;;;6146247;23;20017;-85
2022/02/04 07:52:26;;;;;;;27.75;19.70;;;8.00;94.80;;;;;;6123105;23;20013;-85
2022/02/04 07:55:02;;;;;;;29.98;19.17;;;8.10;94.80;;;;;;6170944;23;20489;-85
2022/02/04 07:57:30;;;;;;;31.65;20.95;;;8.00;94.70;;;;;;6148151;23;20013;-85
2022/02/04 08:00:02;;;;;;;33.72;18.75;;;8.00;94.70;;;;;;6145779;23;20017;-85
2022/02/04 08:02:34;;;;;;;30.10;19.13;;;8.10;94.70;;;;;;6146812;23;20013;-85
2022/02/04 08:05:04;;;;;;;31.52;19.30;;;8.10;94.70;;;;;;6121664;23;20028;-85
2022/02/04 08:07:50;;;;;;;29.25;18.00;;;8.10;94.70;;;;;;6145885;23;20040;-86
2022/02/04 08:15:39;;;;;;;29.48;17.67;;;8.10;94.60;;;;;;6145085;23;20021;-85
2022/02/04 08:23:49;;;;;;;27.75;16.52;;;8.20;94.50;;;;;;6146542;23;20017;-85
2022/02/04 08:26:31;;;;;;;24.05;16.05;;;8.20;94.50;;;;;;6149777;23;20056;-84
2022/02/04 08:31:45;;;;;;;25.88;15.65;;;8.30;94.40;;;;;;6146536;23;20024;-85
2022/02/04 08:35:01;;;;;;;26.35;16.33;;;8.30;94.40;;;;;;6150746;23;20097;-85
2022/02/04 08:56:42;;;;;;;22.95;16.85;;;8.50;94.10;;;;;;6148147;23;20021;-85
2022/02/04 08:59:15;;;;;;;24.85;15.70;;;8.50;94.00;;;;;;6125616;23;20028;-85
2022/02/04 09:01:48;;;;;;;25.17;16.23;;;8.50;94.00;;;;;;6146373;23;20040;-86
2022/02/04 09:04:31;;;;;;;27.20;17.65;;;8.50;94.00;;;;;;6122605;23;20076;-85
2022/02/04 09:07:06;;;;;;;26.77;16.90;;;8.60;94.00;;;;;;6146798;23;20027;-85
2022/02/04 09:20:47;;;;;;;28.30;18.40;;;8.70;93.90;;;;;;6147282;23;20409;-85
2022/02/04 09:23:15;;;;;;;29.67;19.17;;;8.80;93.90;;;;;;6148664;23;20048;-84
2022/02/04 09:25:54;;;;;;;;;;;;;;;;;;;;;
2022/02/04 09:28:21;;;;;;;26.13;19.27;;;8.90;93.90;;;;;;6147582;23;20017;-85
2022/02/04 09:31:09;;;;;;;25.17;19.25;;;8.90;93.80;;;;;;6145246;23;20021;-85
2022/02/04 09:33:41;;;;;;;26.73;19.30;;;9.00;93.80;;;;;;6169702;23;20013;-85
2022/02/04 09:36:10;;;;;;;26.75;18.85;;;9.00;93.80;;;;;;6146047;23;20087;-84
2022/02/04 09:38:39;;;;;;;27.45;19.98;;;9.00;93.70;;;;;;6121568;23;20470;-85
2022/02/04 09:41:14;;;;;;;31.13;20.02;;;9.00;93.60;;;;;;6145241;23;20128;-87
2022/02/04 09:43:54;;;;;;;30.75;21.02;;;9.00;93.60;;;;;;6122954;23;20040;-85
2022/02/04 09:46:33;;;;;;;29.55;20.20;;;9.10;93.50;;;;;;6147204;23;20016;-86
2022/02/04 09:49:27;;;;;;;26.95;20.13;;;9.10;93.50;;;;;;6146046;23;20055;-86
2022/02/04 10:06:58;;;;;;;29.38;19.15;;;9.50;93.10;;;;;;6148369;23;20028;-85
2022/02/04 10:17:08;;;;;;;29.27;19.27;;;9.80;92.80;;;;;;6148055;23;20095;-85
2022/02/04 10:22:40;;;;;;;25.88;18.63;;;10.00;92.70;;;;;;6146998;23;20023;-84
2022/02/04 10:25:11;;;;;;;28.20;17.88;;;10.10;92.60;;;;;;6124868;23;20021;-84
2022/02/04 10:27:51;;;;;;;25.20;17.73;;;10.20;92.50;;;;;;6146624;23;20018;-85
2022/02/04 10:30:18;;;;;;;24.85;17.65;;;10.40;92.30;;;;;;6146815;23;20013;-86
2022/02/04 10:33:01;;;;;;;25.70;18.58;;;10.50;92.10;;;;;;6122556;23;20032;-85
2022/02/04 10:35:39;;;;;;;25.35;16.73;;;10.60;92.00;;;;;;6148768;23;20013;-87
2022/02/04 10:38:37;;;;;;;23.13;17.45;;;10.70;91.90;;;;;;6174090;23;20079;-86
2022/02/04 10:41:23;;;;;;;22.77;16.52;;;10.70;91.50;;;;;;6123957;23;20025;-85
2022/02/04 10:44:24;;;;;;;25.55;15.85;;;10.80;91.50;;;;;;6150948;23;20100;-85
2022/02/04 10:47:02;;;;;;;21.65;15.82;;;10.80;91.10;;;;;;6150085;23;20471;-85
2022/02/04 10:49:56;;;;;;;20.80;14.95;;;10.80;91.30;;;;;;6128591;23;20021;-86
2022/02/04 10:58:06;;;;;;;23.80;14.35;;;10.70;91.20;;;;;;6147025;23;20060;-85
2022/02/04 11:03:21;;;;;;;20.42;14.32;;;10.60;91.00;;;;;;6150995;23;20036;-85
2022/02/04 11:05:53;;;;;;;17.65;12.90;;;10.60;91.10;;;;;;6123501;23;20471;-86
2022/02/04 11:36:23;;;;;;;12.88;10.52;;;11.80;89.50;;;;;;6148985;23;20021;-87
2022/02/04 11:51:45;;;;;;;14.60;11.40;;;12.00;87.20;;;;;;6169770;23;20028;-86
2022/02/04 11:54:30;;;;;;;12.43;10.55;;;12.00;87.10;;;;;;6167105;23;20069;-82
2022/02/04 11:56:59;;;;;;;11.93;10.55;;;11.90;86.60;;;;;;6143355;23;20017;-81
2022/02/04 11:59:39;;;;;;;11.85;10.65;;;11.90;87.40;;;;;;6165938;23;20017;-78
2022/02/04 12:02:37;;;;;;;;;;;;;;;;;;;;;
2022/02/04 12:05:11;;;;;;;12.15;10.00;;;11.80;86.30;;;;;;6169943;23;20071;-86
2022/02/04 12:07:56;;;;;;;13.23;9.98;;;11.70;86.90;;;;;;6146176;23;20346;-90
2022/02/04 12:10:48;;;;;;;11.70;9.05;;;11.70;86.40;;;;;;6146411;23;20017;-89
2022/02/04 12:13:33;;;;;;;10.48;7.95;;;11.60;86.30;;;;;;6171107;23;20028;-87
2022/02/04 12:16:07;;;;;;;10.27;7.57;;;11.60;87.00;;;;;;6148491;23;20017;-84
2022/02/04 12:18:40;;;;;;;10.37;8.27;;;11.60;86.60;;;;;;6143977;23;20028;-85
2022/02/04 12:21:06;;;;;;;10.10;8.10;;;11.60;86.10;;;;;;6145077;23;20048;-86
2022/02/04 12:23:43;;;;;;;10.07;8.32;;;11.50;86.50;;;;;;6144951;23;20017;-88
2022/02/04 12:26:09;;;;;;;10.23;7.43;;;11.40;86.30;;;;;;6146593;23;20021;-87
2022/02/04 12:28:58;;;;;;;10.05;7.95;;;11.30;86.50;;;;;;6143342;23;20017;-86
2022/02/04 12:31:36;;;;;;;10.25;7.60;;;11.30;86.20;;;;;;6144133;23;20024;-85
2022/02/04 12:34:14;;;;;;;10.68;8.10;;;11.20;86.80;;;;;;6122554;23;20045;-85
2022/02/04 12:36:46;;;;;;;9.23;8.32;;;11.20;87.30;;;;;;6152703;23;20017;-90
2022/02/04 12:39:18;;;;;;;12.85;9.00;;;11.10;87.20;;;;;;6126007;23;20017;-92
2022/02/04 12:41:49;;;;;;;12.50;8.38;;;11.00;87.30;;;;;;6151420;23;20104;-87
2022/02/04 12:44:29;;;;;;;10.68;9.57;;;11.00;87.40;;;;;;6122362;23;20044;-85
2022/02/04 12:46:56;;;;;;;12.50;8.80;;;10.90;87.60;;;;;;6146257;23;20021;-85
2022/02/04 12:49:32;;;;;;;10.82;8.55;;;10.80;87.90;;;;;;6120796;23;20017;-86
2022/02/04 12:52:13;;;;;;;11.65;8.63;;;10.80;88.20;;;;;;6126582;23;20019;-89
2022/02/04 12:55:01;;;;;;;11.77;9.98;;;10.70;88.40;;;;;;6104016;23;20077;-88
2022/02/04 12:57:56;;;;;;;11.70;8.90;;;10.70;88.50;;;;;;6174565;23;20017;-86
2022/02/04 13:12:18;;;;;;;11.70;9.10;;;10.40;90.00;;;;;;6098108;23;20025;-87
2022/02/04 13:15:10;;;;;;;13.20;9.68;;;10.30;90.00;;;;;;6145541;23;20112;-86
2022/02/04 13:17:39;;;;;;;13.55;10.13;;;10.30;90.10;;;;;;6130785;23;20021;-86
2022/02/04 13:20:19;;;;;;;13.38;10.32;;;10.20;90.30;;;;;;6145962;23;20072;-85
2022/02/04 13:22:55;;;;;;;13.95;10.00;;;10.20;90.40;;;;;;6169704;23;20095;-88
2022/02/04 13:25:25;;;;;;;14.57;10.18;;;10.10;90.60;;;;;;6120209;23;20052;-87
2022/02/04 13:28:14;;;;;;;12.15;9.35;;;10.10;90.70;;;;;;6169530;23;20021;-92
2022/02/04 13:31:02;;;;;;;14.43;11.63;;;10.00;90.90;;;;;;6146188;23;20020;-86
2022/02/04 13:33:40;;;;;;;13.60;10.95;;;10.00;91.10;;;;;;6121214;23;20096;-85
2022/02/04 13:36:30;;;;;;;14.77;11.65;;;9.90;91.20;;;;;;6145105;23;20075;-80
2022/02/04 13:39:42;;;;;;;;;;;;;;;;;;;;;
2022/02/04 13:42:25;;;;;;;15.10;11.57;;;10.00;91.70;;;;;;6156049;23;20023;-88
2022/02/04 13:45:45;;;;;;;16.23;12.10;;;9.90;91.50;;;;;;6177065;23;20096;-91
2022/02/04 13:48:34;;;;;;;13.77;11.40;;;9.90;91.60;;;;;;6126020;23;20520;-87
2022/02/04 13:51:36;;;;;;;15.20;11.80;;;9.80;91.70;;;;;;6153820;23;20068;-90
2022/02/04 14:02:54;;;;;;;17.40;12.60;;;9.60;92.00;;;;;;6146692;23;20099;-87
2022/02/04 14:05:24;;;;;;;15.43;11.77;;;9.60;92.10;;;;;;6123602;23;20056;-89
2022/02/04 14:07:54;;;;;;;17.17;12.13;;;9.60;92.20;;;;;;6145825;23;20025;-89
2022/02/04 14:10:24;;;;;;;15.00;12.68;;;9.50;92.20;;;;;;6145559;23;20047;-89
2022/02/04 14:13:31;;;;;;;14.65;12.30;;;9.40;92.30;;;;;;6121433;23;20056;-86
2022/02/04 14:16:10;;;;;;;15.30;13.48;;;9.40;92.50;;;;;;6150173;23;20146;-87
2022/02/04 14:22:41;;;;;;;18.13;12.80;;;9.30;92.70;;;;;;6191874;23;20052;-83
2022/02/04 14:25:10;;;;;;;18.83;12.27;;;9.30;92.70;;;;;;6161735;23;20021;-84
2022/02/04 14:27:48;;;;;;;18.40;12.30;;;9.30;93.00;;;;;;6148490;23;20020;-87
2022/02/04 14:30:22;;;;;;;18.92;12.70;;;9.30;92.90;;;;;;6146026;23;20024;-89
2022/02/04 14:33:04;;;;;;;12.90;9.20;;;9.20;93.00;;;;;;6122268;23;20392;-83
2022/02/04 14:35:47;;;;;;;5.88;4.43;;;9.20;93.10;;;;;;6121083;23;20096;-82
2022/02/04 14:50:10;;;;;;;1.50;0.70;;;8.80;92.90;;;;;;6147637;23;20072;-85
2022/02/04 15:03:16;;;;;;;1.55;0.50;;;8.20;92.50;;;;;;6147410;23;20017;-84
2022/02/04 15:05:47;;;;;;;1.17;0.55;;;8.10;92.50;;;;;;6147515;23;20013;-83
2022/02/04 15:08:16;;;;;;;1.67;0.50;;;8.00;92.50;;;;;;6144264;23;20055;-84
2022/02/04 15:10:44;;;;;;;1.10;0.50;;;7.90;92.40;;;;;;6194958;23;20463;-84
2022/02/04 15:13:13;;;;;;;1.52;0.70;;;7.80;92.30;;;;;;6144457;23;20013;-86
2022/02/04 15:15:39;;;;;;;2.90;1.00;;;7.70;92.20;;;;;;6169299;23;20016;-85
2022/02/04 15:18:05;;;;;;;1.52;1.00;;;7.60;92.20;;;;;;6146190;23;20021;-84
2022/02/04 15:20:30;;;;;;;2.55;1.00;;;7.50;92.10;;;;;;6169330;23;20441;-83
2022/02/04 15:22:56;;;;;;;1.95;1.20;;;7.50;92.20;;;;;;6143572;23;20052;-81
2022/02/04 15:25:23;;;;;;;1.92;1.20;;;7.30;92.10;;;;;;6164871;23;20345;-87
2022/02/04 15:30:30;;;;;;;3.35;1.50;;;7.20;92.10;;;;;;6139240;23;20021;-80
2022/02/04 15:32:57;;;;;;;4.43;1.73;;;7.10;92.00;;;;;;6140238;23;20013;-81
2022/02/04 15:35:22;;;;;;;6.20;2.67;;;7.00;92.00;;;;;;6163858;23;20016;-84
2022/02/04 15:37:51;;;;;;;2.80;1.10;;;7.20;93.50;;;;;;6193193;23;20017;-80
2022/02/04 15:40:17;;;;;;;2.03;1.10;;;7.30;93.40;;;;;;6161750;23;20052;-78
2022/02/04 15:42:49;;;;;;;2.58;0.85;;;7.20;92.60;;;;;;6166883;23;20034;-82
2022/02/04 15:45:41;;;;;;;1.85;0.98;;;7.10;92.30;;;;;;6143021;23;20395;-81
2022/02/04 15:53:27;;;;;;;2.72;1.30;;;6.80;92.30;;;;;;6144907;23;20028;-85
2022/02/04 16:03:59;;;;;;;3.05;1.77;;;6.50;92.40;;;;;;6159648;23;20379;-79
2022/02/04 16:06:25;;;;;;;3.58;1.48;;;6.50;92.50;;;;;;6112248;23;20021;-83
2022/02/04 16:08:54;;;;;;;2.13;1.40;;;6.50;92.50;;;;;;6161207;23;20103;-80
2022/02/04 16:14:12;;;;;;;2.80;1.52;;;6.40;92.50;;;;;;6145249;23;20025;-81
2022/02/04 16:16:46;;;;;;;2.28;1.30;;;6.30;92.60;;;;;;6124877;23;20028;-84
2022/02/04 16:19:28;;;;;;;5.10;1.88;;;6.30;92.60;;;;;;6120351;23;20048;-87
2022/02/04 16:29:49;;;;;;;2.85;1.27;;;6.10;92.70;;;;;;6166777;23;20355;-83
2022/02/04 16:32:15;;;;;;;2.00;1.20;;;6.10;92.80;;;;;;6168610;23;20019;-84
2022/02/04 16:34:52;;;;;;;3.30;1.63;;;6.00;92.80;;;;;;6138606;23;20023;-83
2022/02/04 16:37:26;;;;;;;3.33;1.55;;;5.90;92.80;;;;;;6145762;23;20360;-85
2022/02/04 16:39:52;;;;;;;2.90;1.50;;;6.00;92.90;;;;;;6145247;23;20021;-84
2022/02/04 16:42:18;;;;;;;1.95;1.33;;;5.90;92.90;;;;;;6165000;23;20013;-87
2022/02/04 16:44:46;;;;;;;3.55;1.55;;;5.90;92.90;;;;;;6167137;23;20075;-88
2022/02/04 16:47:12;;;;;;;2.20;1.65;;;5.90;93.00;;;;;;6144430;23;20077;-89
2022/02/04 16:49:37;;;;;;;5.35;2.05;;;5.90;93.10;;;;;;6145217;23;20017;-88
2022/02/04 16:52:05;;;;;;;4.22;2.03;;;5.80;93.10;;;;;;6145245;23;20028;-91
2022/02/04 16:54:33;;;;;;;6.88;2.30;;;5.80;93.10;;;;;;6120749;23;20024;-89
2022/02/04 16:56:59;;;;;;;3.83;2.10;;;5.80;93.20;;;;;;6144714;23;20049;-89
2022/02/04 16:59:24;;;;;;;4.03;1.75;;;5.80;93.20;;;;;;6167940;23;20024;-93
2022/02/04 17:01:57;;;;;;;3.53;2.13;;;5.80;93.30;;;;;;6142813;23;20040;-82
2022/02/04 17:04:23;;;;;;;4.63;1.92;;;5.80;93.40;;;;;;6172858;23;20024;-89
2022/02/04 17:06:56;;;;;;;5.88;2.83;;;5.80;93.40;;;;;;6168094;23;20067;-92
2022/02/04 17:09:28;;;;;;;6.10;2.25;;;5.70;93.40;;;;;;6146023;23;20017;-88
2022/02/04 17:12:02;;;;;;;7.93;2.30;;;5.80;93.80;;;;;;6120700;23;20021;-89
2022/02/04 17:14:28;;;;;;;6.07;1.75;;;5.70;93.50;;;;;;6144247;23;20379;-89
2022/02/04 17:16:55;;;;;;;4.25;1.50;;;5.70;93.40;;;;;;6143582;23;20063;-87
2022/02/04 17:19:24;;;;;;;6.93;1.98;;;5.70;93.50;;;;;;6142127;23;20498;-88
2022/02/04 17:21:51;;;;;;;4.40;1.33;;;5.70;93.50;;;;;;6141859;23;20395;-84
2022/02/04 17:24:17;;;;;;;4.57;1.30;;;5.60;93.50;;;;;;6141941;23;20027;-89
2022/02/04 17:26:43;;;;;;;4.90;1.92;;;5.60;93.50;;;;;;6140666;23;20025;-83
2022/02/04 17:29:09;;;;;;;5.72;1.60;;;5.60;93.50;;;;;;6116600;23;20115;-90
2022/02/04 17:31:35;;;;;;;3.45;1.70;;;5.60;93.50;;;;;;6166095;23;20104;-90
2022/02/04 17:34:01;;;;;;;7.28;1.95;;;5.60;93.60;;;;;;6141967;23;20017;-90
2022/02/04 17:36:31;;;;;;;5.80;2.65;;;5.50;93.50;;;;;;6142576;23;20451;-89
2022/02/04 17:38:57;;;;;;;7.22;2.85;;;5.50;93.60;;;;;;6118469;23;20021;-88
2022/02/04 17:41:23;;;;;;;7.80;2.58;;;5.50;93.60;;;;;;6140605;23;20496;-92
2022/02/04 17:43:49;;;;;;;7.38;2.40;;;5.50;93.60;;;;;;6142572;23;20017;-88
2022/02/04 17:46:15;;;;;;;4.47;1.70;;;5.40;93.60;;;;;;6142441;23;20023;-90
2022/02/04 17:48:52;;;;;;;7.47;2.50;;;5.40;93.60;;;;;;6166945;23;20017;-86
2022/02/04 17:51:33;;;;;;;6.60;1.90;;;5.30;93.50;;;;;;6168867;23;20107;-85
2022/02/04 17:54:03;;;;;;;6.07;1.73;;;5.30;93.50;;;;;;6143336;23;20017;-87
2022/02/04 17:56:35;;;;;;;6.18;2.05;;;5.30;93.50;;;;;;6141233;23;20017;-83
2022/02/04 17:59:18;;;;;;;5.75;1.95;;;5.30;93.50;;;;;;6142113;23;20478;-88
2022/02/04 18:07:15;;;;;;;9.43;2.85;;;5.20;93.50;;;;;;6148038;23;20025;-89
2022/02/04 18:09:43;;;;;;;8.73;2.33;;;5.10;93.60;;;;;;6122240;23;20045;-93
2022/02/04 18:12:10;;;;;;;9.27;2.72;;;5.10;93.70;;;;;;6143591;23;20013;-88
2022/02/04 18:14:36;;;;;;;9.55;2.70;;;5.10;93.70;;;;;;6142100;23;20017;-88
2022/02/04 18:17:02;;;;;;;9.77;3.45;;;5.20;93.80;;;;;;6139527;23;20036;-83
2022/02/04 18:19:27;;;;;;;10.13;3.55;;;5.10;93.80;;;;;;6140918;23;20081;-85
2022/02/04 18:21:53;;;;;;;13.13;3.10;;;5.10;93.70;;;;;;6139591;23;20017;-83
2022/02/04 18:24:20;;;;;;;7.28;2.80;;;5.10;93.80;;;;;;6164748;23;20024;-84
2022/02/04 18:26:45;;;;;;;7.93;3.00;;;5.00;93.80;;;;;;6142002;23;20021;-84
2022/02/04 18:29:11;;;;;;;16.45;4.60;;;5.10;93.80;;;;;;6141511;23;20040;-87
2022/02/04 18:31:37;;;;;;;11.48;3.25;;;5.40;94.90;;;;;;6115736;23;20344;-93
2022/02/04 18:34:09;;;;;;;9.98;3.88;;;5.40;94.50;;;;;;6171134;23;20025;-90
2022/02/04 18:36:35;;;;;;;9.95;3.70;;;5.40;94.00;;;;;;6194792;23;20055;-93
2022/02/04 18:39:27;;;;;;;9.90;3.92;;;5.40;93.90;;;;;;6143775;23;20017;-93
2022/02/04 18:44:55;;;;;;;12.23;4.07;;;5.30;93.90;;;;;;6133110;23;20325;-93
2022/02/04 18:47:59;;;;;;;13.52;4.13;;;5.20;93.90;;;;;;6172289;23;20021;-90
2022/02/04 18:58:11;;;;;;;20.38;5.32;;;5.20;93.90;;;;;;6150619;23;20091;-92
2022/02/04 19:00:36;;;;;;;16.00;5.82;;;5.10;93.90;;;;;;6172078;23;20016;-91
2022/02/04 19:03:06;;;;;;;17.55;5.65;;;5.00;93.90;;;;;;6120703;23;20226;-90
2022/02/04 19:05:37;;;;;;;14.75;5.13;;;5.00;93.90;;;;;;6148176;23;20021;-89
2022/02/04 19:08:09;;;;;;;19.42;5.43;;;5.00;93.90;;;;;;6169096;23;20096;-91
2022/02/04 19:10:37;;;;;;;12.80;5.15;;;5.00;93.90;;;;;;6145706;23;20021;-88
2022/02/04 19:13:09;;;;;;;13.90;5.35;;;5.00;94.00;;;;;;6194581;23;20024;-87
2022/02/04 19:18:27;;;;;;;16.45;5.68;;;5.00;94.00;;;;;;6149304;23;20021;-88
2022/02/04 19:21:05;;;;;;;14.93;5.85;;;5.00;94.10;;;;;;6193076;23;20024;-86
2022/02/04 19:23:31;;;;;;;20.00;6.68;;;5.00;94.10;;;;;;6176746;23;20048;-90
2022/02/04 19:26:00;;;;;;;14.68;6.22;;;4.90;94.10;;;;;;6169163;23;20060;-88
2022/02/04 19:28:28;;;;;;;14.77;4.72;;;5.00;94.20;;;;;;6145069;23;20017;-88
2022/02/04 19:30:55;;;;;;;15.90;4.50;;;4.90;94.20;;;;;;6168366;23;20352;-87
2022/02/04 19:33:22;;;;;;;12.98;3.70;;;4.90;94.10;;;;;;6168336;23;20048;-86
2022/02/04 19:35:48;;;;;;;9.95;2.90;;;4.90;94.20;;;;;;6167870;23;20013;-86
2022/02/04 19:38:14;;;;;;;14.73;3.35;;;4.90;94.20;;;;;;6167598;23;20459;-86